createdAt,value
2022-07-30T00:02:36.422Z,1.60
2022-07-30T00:07:39.695Z,1.90
2022-07-30T00:12:43.076Z,1.60
2022-07-30T00:17:46.758Z,1.60
2022-07-30T00:22:52.833Z,1.60
2022-07-30T00:27:56.400Z,1.70
2022-07-30T00:33:00.996Z,1.60
2022-07-30T00:38:04.585Z,1.20
2022-07-30T00:43:08.698Z,1.40
2022-07-30T00:48:13.804Z,1.60
2022-07-30T00:53:17.575Z,2.20
2022-07-30T00:58:21.007Z,1.70
2022-07-30T01:03:25.269Z,1.60
2022-07-30T01:08:28.440Z,2.20
2022-07-30T01:13:31.669Z,1.90
2022-07-30T01:18:55.323Z,1.80
2022-07-30T01:24:27.049Z,1.60
2022-07-30T01:29:32.159Z,1.40
2022-07-30T01:34:36.181Z,1.60
2022-07-30T01:39:41.714Z,2.10
2022-07-30T01:44:47.863Z,1.80
2022-07-30T01:49:53.007Z,1.70
2022-07-30T01:55:05.170Z,1.80
2022-07-30T02:00:20.268Z,1.50
2022-07-30T02:05:27.659Z,2.40
2022-07-30T02:10:52.865Z,1.80
2022-07-30T02:16:14.312Z,3.00
2022-07-30T02:21:19.918Z,1.70
2022-07-30T02:26:26.285Z,1.40
2022-07-30T02:31:32.200Z,1.60
2022-07-30T02:36:37.612Z,1.70
2022-07-30T02:41:49.251Z,1.60
2022-07-30T02:46:54.161Z,1.60
2022-07-30T02:52:22.131Z,1.90
2022-07-30T02:57:29.429Z,2.10
2022-07-30T03:02:43.628Z,1.50
2022-07-30T03:07:47.942Z,1.60
2022-07-30T03:12:55.470Z,1.60
2022-07-30T03:18:00.916Z,2.10
2022-07-30T03:23:04.932Z,1.70
2022-07-30T03:28:09.145Z,1.70
2022-07-30T03:33:13.276Z,1.50
2022-07-30T03:38:23.915Z,2.20
2022-07-30T03:43:33.140Z,1.90
2022-07-30T03:48:38.983Z,2.00
2022-07-30T03:53:43.120Z,1.70
2022-07-30T03:59:05.645Z,1.50
2022-07-30T04:04:11.805Z,1.60
2022-07-30T04:09:16.491Z,1.60
2022-07-30T04:14:29.040Z,1.80
2022-07-30T04:19:45.030Z,2.00
2022-07-30T04:24:49.779Z,2.00
2022-07-30T04:29:54.473Z,1.70
2022-07-30T04:34:57.980Z,1.40
2022-07-30T04:40:47.628Z,2.20
2022-07-30T04:46:03.852Z,1.80
2022-07-30T04:56:14.577Z,1.90
2022-07-30T05:01:24.435Z,1.30
2022-07-30T05:06:44.212Z,1.80
2022-07-30T05:12:13.474Z,1.60
2022-07-30T05:17:17.352Z,1.20
2022-07-30T05:22:20.508Z,1.40
2022-07-30T05:27:23.864Z,1.70
2022-07-30T05:32:31.447Z,1.80
2022-07-30T05:37:44.301Z,1.70
2022-07-30T05:42:47.946Z,2.20
2022-07-30T05:47:51.251Z,1.50
2022-07-30T05:53:00.327Z,1.80
2022-07-30T05:58:23.410Z,1.80
2022-07-30T06:03:26.685Z,2.00
2022-07-30T06:08:57.049Z,1.80
2022-07-30T06:14:01.404Z,2.40
2022-07-30T06:19:19.760Z,1.50
2022-07-30T06:24:29.020Z,4.40
2022-07-30T06:29:54.979Z,1.90
2022-07-30T06:35:04.325Z,1.60
2022-07-30T06:40:09.608Z,1.30
2022-07-30T06:45:45.061Z,1.90
2022-07-30T06:51:21.033Z,1.50
2022-07-30T06:56:26.451Z,1.40
2022-07-30T07:01:39.577Z,1.50
2022-07-30T07:06:43.389Z,1.20
2022-07-30T07:12:00.677Z,1.50
2022-07-30T07:17:10.325Z,1.50
2022-07-30T07:22:49.428Z,1.50
2022-07-30T07:28:10.883Z,1.40
2022-07-30T07:33:17.653Z,1.60
2022-07-30T07:38:21.966Z,1.40
2022-07-30T07:43:26.839Z,1.70
2022-07-30T07:48:32.858Z,2.20
2022-07-30T07:54:20.319Z,1.50
2022-07-30T07:59:39.983Z,1.80
2022-07-30T08:05:06.068Z,1.60
2022-07-30T08:10:32.482Z,1.60
2022-07-30T08:21:28.822Z,1.50
2022-07-30T08:26:32.230Z,1.60
2022-07-30T08:31:37.521Z,1.40
2022-07-30T08:36:41.951Z,1.70
2022-07-30T08:41:45.447Z,1.80
2022-07-30T08:46:53.513Z,2.40
2022-07-30T08:52:20.290Z,1.20
2022-07-30T08:57:35.684Z,1.40
2022-07-30T09:02:39.321Z,1.40
2022-07-30T09:07:43.917Z,1.40
2022-07-30T09:12:52.329Z,1.50
2022-07-30T09:18:00.817Z,1.90
2022-07-30T09:23:06.513Z,1.50
2022-07-30T09:28:30.965Z,1.80
2022-07-30T09:33:52.698Z,1.50
2022-07-30T09:39:38.078Z,2.30
2022-07-30T09:45:09.012Z,2.00
2022-07-30T09:55:41.360Z,1.70
2022-07-30T10:00:58.224Z,2.80
2022-07-30T10:06:34.784Z,2.40
2022-07-30T10:11:42.926Z,2.50
2022-07-30T10:16:49.393Z,2.40
2022-07-30T10:21:58.347Z,2.70
2022-07-30T10:27:41.378Z,2.60
2022-07-30T10:33:00.115Z,2.00
2022-07-30T10:38:08.754Z,2.90
2022-07-30T10:43:32.854Z,2.10
2022-07-30T10:48:36.295Z,2.50
2022-07-30T10:53:42.936Z,3.00
2022-07-30T10:59:09.437Z,2.60
2022-07-30T11:04:33.963Z,2.90
2022-07-30T11:09:42.818Z,3.20
2022-07-30T11:14:46.616Z,3.30
2022-07-30T11:20:05.302Z,3.30
2022-07-30T11:25:12.641Z,3.20
2022-07-30T11:30:17.148Z,3.50
2022-07-30T11:35:34.939Z,3.70
2022-07-30T11:41:01.350Z,3.40
2022-07-30T11:46:28.949Z,3.20
2022-07-30T11:51:44.996Z,3.40
2022-07-30T11:56:54.359Z,4.80
2022-07-30T12:02:01.114Z,4.40
2022-07-30T12:07:04.719Z,5.90
2022-07-30T12:12:24.423Z,4.50
2022-07-30T12:17:44.878Z,5.80
2022-07-30T12:22:48.234Z,5.40
2022-07-30T12:27:52.387Z,6.50
2022-07-30T12:32:55.682Z,6.00
2022-07-30T12:38:04.637Z,6.70
2022-07-30T12:43:13.656Z,7.30
2022-07-30T12:48:17.299Z,6.20
2022-07-30T12:53:29.878Z,6.80
2022-07-30T12:58:38.343Z,6.80
2022-07-30T13:03:42.363Z,7.00
2022-07-30T13:08:55.052Z,7.30
2022-07-30T13:13:58.341Z,7.30
2022-07-30T13:19:03.353Z,6.90
2022-07-30T13:24:07.750Z,8.10
2022-07-30T13:29:13.857Z,8.40
2022-07-30T13:34:17.340Z,7.40
2022-07-30T13:39:20.716Z,8.10
2022-07-30T13:44:24.134Z,8.40
2022-07-30T13:49:27.651Z,6.70
2022-07-30T13:54:57.900Z,6.80
2022-07-30T14:00:11.434Z,8.90
2022-07-30T14:05:15.412Z,8.20
2022-07-30T14:10:28.525Z,7.90
2022-07-30T14:15:34.775Z,8.30
2022-07-30T14:20:39.703Z,7.30
2022-07-30T14:25:45.339Z,5.50
2022-07-30T14:30:49.460Z,5.80
2022-07-30T14:35:57.553Z,5.70
2022-07-30T14:41:05.854Z,6.20
2022-07-30T14:46:09.388Z,5.80
2022-07-30T14:51:17.932Z,5.60
2022-07-30T14:56:26.545Z,4.70
2022-07-30T15:01:30.270Z,5.80
2022-07-30T15:06:34.056Z,4.70
2022-07-30T15:12:04.325Z,5.60
2022-07-30T15:17:04.226Z,4.80
2022-07-30T15:22:08.141Z,4.10
2022-07-30T15:27:14.228Z,5.10
2022-07-30T15:32:19.643Z,6.40
2022-07-30T15:37:23.019Z,5.70
2022-07-30T15:42:31.385Z,5.00
2022-07-30T15:47:36.525Z,3.80
2022-07-30T15:52:39.886Z,3.50
2022-07-30T15:57:43.582Z,2.60
2022-07-30T16:02:46.904Z,4.70
